sensor_id;sensor_type;location;lat;lon;timestamp;pressure;altitude;pressure_sealevel;temperature;humidity
9695;BME280;4690;52.422;13.486;2023-05-17T00:04:36;101576.66;;;12.11;50.27
9695;BME280;4690;52.422;13.486;2023-05-17T00:07:01;101570.75;;;12.08;50.62
9695;BME280;4690;52.422;13.486;2023-05-17T00:09:27;101582.34;;;12.10;51.06
9695;BME280;4690;52.422;13.486;2023-05-17T00:11:53;101573.06;;;12.11;51.28
9695;BME280;4690;52.422;13.486;2023-05-17T00:14:19;101574.94;;;12.10;51.56
9695;BME280;4690;52.422;13.486;2023-05-17T00:16:44;101570.97;;;12.06;52.02
9695;BME280;4690;52.422;13.486;2023-05-17T00:19:10;101565.91;;;12.03;52.17
9695;BME280;4690;52.422;13.486;2023-05-17T00:21:36;101575.63;;;11.99;52.41
9695;BME280;4690;52.422;13.486;2023-05-17T00:24:02;101578.19;;;11.94;52.70
9695;BME280;4690;52.422;13.486;2023-05-17T00:26:28;101579.44;;;11.98;53.22
9695;BME280;4690;52.422;13.486;2023-05-17T00:28:54;101583.03;;;11.99;53.33
9695;BME280;4690;52.422;13.486;2023-05-17T00:31:20;101582.41;;;11.97;53.96
9695;BME280;4690;52.422;13.486;2023-05-17T00:33:45;101584.28;;;11.96;54.14
9695;BME280;4690;52.422;13.486;2023-05-17T00:36:12;101578.63;;;11.91;54.46
9695;BME280;4690;52.422;13.486;2023-05-17T00:38:37;101572.25;;;11.91;54.55
9695;BME280;4690;52.422;13.486;2023-05-17T00:41:03;101573.13;;;11.91;54.85
9695;BME280;4690;52.422;13.486;2023-05-17T00:43:29;101575.88;;;11.91;55.00
9695;BME280;4690;52.422;13.486;2023-05-17T00:45:55;101577.75;;;11.91;55.45
9695;BME280;4690;52.422;13.486;2023-05-17T00:48:21;101579.25;;;11.86;55.43
9695;BME280;4690;52.422;13.486;2023-05-17T00:50:54;101583.06;;;11.85;55.52
9695;BME280;4690;52.422;13.486;2023-05-17T00:53:21;101580.53;;;11.77;56.31
9695;BME280;4690;52.422;13.486;2023-05-17T00:55:47;101568.47;;;11.78;56.99
9695;BME280;4690;52.422;13.486;2023-05-17T00:58:14;101577.13;;;11.75;56.94
9695;BME280;4690;52.422;13.486;2023-05-17T01:00:41;101572.72;;;11.74;57.23
9695;BME280;4690;52.422;13.486;2023-05-17T01:03:07;101567.63;;;11.71;57.55
9695;BME280;4690;52.422;13.486;2023-05-17T01:05:33;101573.56;;;11.68;57.77
9695;BME280;4690;52.422;13.486;2023-05-17T01:07:59;101580.94;;;11.67;58.18
9695;BME280;4690;52.422;13.486;2023-05-17T01:10:53;101580.53;;;11.64;58.24
9695;BME280;4690;52.422;13.486;2023-05-17T01:14:46;101579.09;;;11.55;58.95
9695;BME280;4690;52.422;13.486;2023-05-17T01:16:50;101578.63;;;11.51;59.39
9695;BME280;4690;52.422;13.486;2023-05-17T01:22:34;101586.25;;;11.49;59.95
9695;BME280;4690;52.422;13.486;2023-05-17T01:27:47;101583.53;;;11.36;60.35
9695;BME280;4690;52.422;13.486;2023-05-17T01:30:16;101595.13;;;11.31;60.41
9695;BME280;4690;52.422;13.486;2023-05-17T01:32:45;101598.72;;;11.25;60.05
9695;BME280;4690;52.422;13.486;2023-05-17T01:35:11;101602.72;;;11.16;60.56
9695;BME280;4690;52.422;13.486;2023-05-17T01:37:38;101607.56;;;11.07;60.67
9695;BME280;4690;52.422;13.486;2023-05-17T01:40:06;101606.50;;;11.02;60.75
9695;BME280;4690;52.422;13.486;2023-05-17T01:42:37;101605.63;;;10.94;61.13
9695;BME280;4690;52.422;13.486;2023-05-17T01:45:15;101601.41;;;10.85;61.40
9695;BME280;4690;52.422;13.486;2023-05-17T01:50:23;101608.56;;;10.73;62.05
9695;BME280;4690;52.422;13.486;2023-05-17T01:53:22;101617.16;;;10.70;62.47
9695;BME280;4690;52.422;13.486;2023-05-17T01:56:02;101609.78;;;10.64;62.81
9695;BME280;4690;52.422;13.486;2023-05-17T01:58:30;101605.97;;;10.58;63.08
9695;BME280;4690;52.422;13.486;2023-05-17T02:01:00;101609.53;;;10.52;63.20
9695;BME280;4690;52.422;13.486;2023-05-17T02:03:28;101616.91;;;10.51;63.06
9695;BME280;4690;52.422;13.486;2023-05-17T02:05:54;101611.59;;;10.43;63.62
9695;BME280;4690;52.422;13.486;2023-05-17T02:08:19;101614.56;;;10.42;63.28
9695;BME280;4690;52.422;13.486;2023-05-17T02:10:45;101605.03;;;10.38;63.49
9695;BME280;4690;52.422;13.486;2023-05-17T02:13:11;101613.25;;;10.38;63.93
9695;BME280;4690;52.422;13.486;2023-05-17T02:15:37;101611.13;;;10.33;64.14
9695;BME280;4690;52.422;13.486;2023-05-17T02:18:03;101609.03;;;10.28;64.45
9695;BME280;4690;52.422;13.486;2023-05-17T02:20:29;101596.69;;;10.11;65.21
9695;BME280;4690;52.422;13.486;2023-05-17T02:22:54;101606.41;;;10.14;65.17
9695;BME280;4690;52.422;13.486;2023-05-17T02:25:20;101603.25;;;10.17;65.92
9695;BME280;4690;52.422;13.486;2023-05-17T02:27:46;101595.03;;;10.17;65.51
9695;BME280;4690;52.422;13.486;2023-05-17T02:30:12;101589.50;;;10.10;66.08
9695;BME280;4690;52.422;13.486;2023-05-17T02:32:39;101597.53;;;10.12;66.04
9695;BME280;4690;52.422;13.486;2023-05-17T02:35:05;101592.25;;;10.10;66.32
9695;BME280;4690;52.422;13.486;2023-05-17T02:37:31;101593.50;;;10.07;66.42
9695;BME280;4690;52.422;13.486;2023-05-17T02:39:57;101598.53;;;10.04;66.30
9695;BME280;4690;52.422;13.486;2023-05-17T02:42:23;101598.28;;;9.99;66.50
9695;BME280;4690;52.422;13.486;2023-05-17T02:44:48;101592.56;;;9.94;66.47
9695;BME280;4690;52.422;13.486;2023-05-17T02:47:17;101594.88;;;9.90;66.75
9695;BME280;4690;52.422;13.486;2023-05-17T02:49:46;101603.91;;;9.84;66.89
9695;BME280;4690;52.422;13.486;2023-05-17T02:52:14;101597.59;;;9.83;66.60
9695;BME280;4690;52.422;13.486;2023-05-17T02:54:40;101604.94;;;9.83;67.18
9695;BME280;4690;52.422;13.486;2023-05-17T02:57:08;101601.56;;;9.81;67.05
9695;BME280;4690;52.422;13.486;2023-05-17T02:59:34;101605.97;;;9.82;67.35
9695;BME280;4690;52.422;13.486;2023-05-17T03:02:00;101602.22;;;9.83;67.95
9695;BME280;4690;52.422;13.486;2023-05-17T03:04:26;101606.81;;;9.82;67.91
9695;BME280;4690;52.422;13.486;2023-05-17T03:06:51;101608.53;;;9.83;68.26
9695;BME280;4690;52.422;13.486;2023-05-17T03:09:18;101613.78;;;9.85;68.24
9695;BME280;4690;52.422;13.486;2023-05-17T03:11:43;101620.97;;;9.86;68.46
9695;BME280;4690;52.422;13.486;2023-05-17T03:14:09;101616.53;;;9.85;68.61
9695;BME280;4690;52.422;13.486;2023-05-17T03:16:35;101618.84;;;9.88;68.89
9695;BME280;4690;52.422;13.486;2023-05-17T03:19:01;101625.81;;;9.91;68.79
9695;BME280;4690;52.422;13.486;2023-05-17T03:21:27;101629.03;;;9.94;69.37
9695;BME280;4690;52.422;13.486;2023-05-17T03:23:52;101618.50;;;9.98;69.22
9695;BME280;4690;52.422;13.486;2023-05-17T03:26:18;101624.25;;;10.03;69.47
9695;BME280;4690;52.422;13.486;2023-05-17T03:28:44;101618.34;;;10.06;69.17
9695;BME280;4690;52.422;13.486;2023-05-17T03:31:11;101628.06;;;10.08;69.48
9695;BME280;4690;52.422;13.486;2023-05-17T03:33:36;101626.81;;;10.11;69.25
9695;BME280;4690;52.422;13.486;2023-05-17T03:36:03;101631.88;;;10.14;69.49
9695;BME280;4690;52.422;13.486;2023-05-17T03:38:29;101636.13;;;10.17;69.35
9695;BME280;4690;52.422;13.486;2023-05-17T03:40:54;101635.72;;;10.20;69.70
9695;BME280;4690;52.422;13.486;2023-05-17T03:43:20;101640.56;;;10.24;69.09
9695;BME280;4690;52.422;13.486;2023-05-17T03:45:46;101651.13;;;10.27;69.61
9695;BME280;4690;52.422;13.486;2023-05-17T03:48:12;101651.19;;;10.34;69.62
9695;BME280;4690;52.422;13.486;2023-05-17T03:50:38;101649.53;;;10.40;69.98
9695;BME280;4690;52.422;13.486;2023-05-17T03:53:06;101649.13;;;10.43;69.81
9695;BME280;4690;52.422;13.486;2023-05-17T03:55:32;101654.84;;;10.48;70.05
9695;BME280;4690;52.422;13.486;2023-05-17T03:57:57;101665.63;;;10.56;70.37
9695;BME280;4690;52.422;13.486;2023-05-17T04:00:23;101663.56;;;10.65;70.50
9695;BME280;4690;52.422;13.486;2023-05-17T04:02:50;101664.66;;;10.77;70.75
9695;BME280;4690;52.422;13.486;2023-05-17T04:05:17;101669.13;;;10.85;70.33
9695;BME280;4690;52.422;13.486;2023-05-17T04:07:43;101665.31;;;10.92;70.39
9695;BME280;4690;52.422;13.486;2023-05-17T04:10:09;101671.44;;;10.94;70.08
9695;BME280;4690;52.422;13.486;2023-05-17T04:12:36;101673.34;;;11.00;70.41
9695;BME280;4690;52.422;13.486;2023-05-17T04:15:02;101672.56;;;11.13;69.98
9695;BME280;4690;52.422;13.486;2023-05-17T04:17:28;101660.75;;;11.19;69.58
9695;BME280;4690;52.422;13.486;2023-05-17T04:19:54;101670.88;;;11.19;68.74
9695;BME280;4690;52.422;13.486;2023-05-17T04:22:20;101668.16;;;11.26;68.95
9695;BME280;4690;52.422;13.486;2023-05-17T04:24:46;101674.47;;;11.26;68.47
9695;BME280;4690;52.422;13.486;2023-05-17T04:27:12;101680.63;;;11.35;68.60
9695;BME280;4690;52.422;13.486;2023-05-17T04:29:38;101677.66;;;11.43;68.38
9695;BME280;4690;52.422;13.486;2023-05-17T04:32:07;101674.94;;;11.50;68.47
9695;BME280;4690;52.422;13.486;2023-05-17T04:34:33;101682.13;;;11.64;68.15
9695;BME280;4690;52.422;13.486;2023-05-17T04:36:58;101687.19;;;11.74;68.13
9695;BME280;4690;52.422;13.486;2023-05-17T04:39:24;101685.50;;;11.79;66.96
9695;BME280;4690;52.422;13.486;2023-05-17T04:41:50;101694.78;;;11.85;66.77
9695;BME280;4690;52.422;13.486;2023-05-17T04:44:16;101705.38;;;11.88;66.73
9695;BME280;4690;52.422;13.486;2023-05-17T04:46:42;101699.91;;;11.95;66.88
9695;BME280;4690;52.422;13.486;2023-05-17T04:49:09;101707.72;;;11.91;66.81
9695;BME280;4690;52.422;13.486;2023-05-17T04:51:35;101719.31;;;11.93;66.74
9695;BME280;4690;52.422;13.486;2023-05-17T04:54:01;101728.19;;;11.95;66.81
9695;BME280;4690;52.422;13.486;2023-05-17T04:56:28;101734.53;;;11.89;66.12
9695;BME280;4690;52.422;13.486;2023-05-17T04:58:54;101740.25;;;11.87;66.21
9695;BME280;4690;52.422;13.486;2023-05-17T05:01:20;101736.66;;;11.87;66.45
9695;BME280;4690;52.422;13.486;2023-05-17T05:03:46;101742.78;;;11.96;66.52
9695;BME280;4690;52.422;13.486;2023-05-17T05:06:12;101743.00;;;12.01;66.58
9695;BME280;4690;52.422;13.486;2023-05-17T05:08:38;101744.69;;;12.08;66.66
9695;BME280;4690;52.422;13.486;2023-05-17T05:11:04;101755.66;;;12.15;66.55
9695;BME280;4690;52.422;13.486;2023-05-17T05:13:30;101761.16;;;12.22;66.00
9695;BME280;4690;52.422;13.486;2023-05-17T05:15:56;101764.75;;;12.22;65.19
9695;BME280;4690;52.422;13.486;2023-05-17T05:18:22;101764.34;;;12.25;65.24
9695;BME280;4690;52.422;13.486;2023-05-17T05:20:48;101752.28;;;12.26;64.67
9695;BME280;4690;52.422;13.486;2023-05-17T05:23:14;101758.84;;;12.25;64.14
9695;BME280;4690;52.422;13.486;2023-05-17T05:25:42;101756.69;;;12.41;64.41
9695;BME280;4690;52.422;13.486;2023-05-17T05:28:08;101759.66;;;12.39;63.70
9695;BME280;4690;52.422;13.486;2023-05-17T05:30:34;101757.94;;;12.51;63.83
9695;BME280;4690;52.422;13.486;2023-05-17T05:33:00;101761.31;;;12.60;63.95
9695;BME280;4690;52.422;13.486;2023-05-17T05:35:26;101754.75;;;12.54;62.44
9695;BME280;4690;52.422;13.486;2023-05-17T05:37:56;101757.75;;;12.53;62.09
9695;BME280;4690;52.422;13.486;2023-05-17T05:40:22;101770.00;;;12.50;61.81
9695;BME280;4690;52.422;13.486;2023-05-17T05:42:48;101770.22;;;12.49;61.97
9695;BME280;4690;52.422;13.486;2023-05-17T05:45:14;101775.03;;;12.60;61.24
9695;BME280;4690;52.422;13.486;2023-05-17T05:47:40;101764.03;;;12.67;61.79
9695;BME280;4690;52.422;13.486;2023-05-17T05:50:07;101773.09;;;12.87;61.33
9695;BME280;4690;52.422;13.486;2023-05-17T05:52:33;101778.50;;;13.00;60.21
9695;BME280;4690;52.422;13.486;2023-05-17T05:54:59;101781.50;;;12.99;60.26
9695;BME280;4690;52.422;13.486;2023-05-17T05:57:24;101786.34;;;13.04;60.93
9695;BME280;4690;52.422;13.486;2023-05-17T05:59:50;101780.81;;;13.10;60.28
9695;BME280;4690;52.422;13.486;2023-05-17T06:02:16;101791.78;;;13.23;60.30
9695;BME280;4690;52.422;13.486;2023-05-17T06:04:42;101796.00;;;13.26;60.70
9695;BME280;4690;52.422;13.486;2023-05-17T06:07:08;101787.13;;;13.17;59.18
9695;BME280;4690;52.422;13.486;2023-05-17T06:09:33;101796.66;;;13.21;59.69
9695;BME280;4690;52.422;13.486;2023-05-17T06:11:59;101803.81;;;13.22;59.83
9695;BME280;4690;52.422;13.486;2023-05-17T06:14:25;101811.22;;;13.35;59.05
9695;BME280;4690;52.422;13.486;2023-05-17T06:16:51;101813.09;;;13.41;57.87
9695;BME280;4690;52.422;13.486;2023-05-17T06:19:17;101804.00;;;13.34;55.05
9695;BME280;4690;52.422;13.486;2023-05-17T06:21:44;101805.91;;;13.40;55.32
9695;BME280;4690;52.422;13.486;2023-05-17T06:24:10;101802.84;;;13.55;56.76
9695;BME280;4690;52.422;13.486;2023-05-17T06:26:36;101806.91;;;13.53;56.05
9695;BME280;4690;52.422;13.486;2023-05-17T06:29:02;101810.75;;;13.45;54.78
9695;BME280;4690;52.422;13.486;2023-05-17T06:31:28;101814.00;;;13.29;53.84
9695;BME280;4690;52.422;13.486;2023-05-17T06:33:54;101819.72;;;13.27;54.09
9695;BME280;4690;52.422;13.486;2023-05-17T06:36:20;101821.22;;;13.30;54.79
9695;BME280;4690;52.422;13.486;2023-05-17T06:38:45;101808.22;;;13.43;54.98
9695;BME280;4690;52.422;13.486;2023-05-17T06:41:11;101807.81;;;13.78;56.15
9695;BME280;4690;52.422;13.486;2023-05-17T06:43:37;101803.09;;;14.10;53.76
9695;BME280;4690;52.422;13.486;2023-05-17T06:46:02;101798.31;;;14.49;52.71
9695;BME280;4690;52.422;13.486;2023-05-17T06:48:28;101802.22;;;14.85;50.26
9695;BME280;4690;52.422;13.486;2023-05-17T06:50:54;101804.91;;;15.10;49.07
9695;BME280;4690;52.422;13.486;2023-05-17T06:53:20;101815.53;;;15.25;48.05
9695;BME280;4690;52.422;13.486;2023-05-17T06:55:46;101820.63;;;15.10;46.97
9695;BME280;4690;52.422;13.486;2023-05-17T06:58:12;101820.47;;;15.05;47.63
9695;BME280;4690;52.422;13.486;2023-05-17T07:00:37;101820.00;;;15.08;48.91
9695;BME280;4690;52.422;13.486;2023-05-17T07:03:03;101813.41;;;15.27;48.22
9695;BME280;4690;52.422;13.486;2023-05-17T07:05:29;101817.34;;;15.50;48.06
9695;BME280;4690;52.422;13.486;2023-05-17T07:07:57;101816.25;;;15.69;47.31
9695;BME280;4690;52.422;13.486;2023-05-17T07:10:23;101815.50;;;15.92;46.50
9695;BME280;4690;52.422;13.486;2023-05-17T07:12:49;101821.31;;;16.14;46.48
9695;BME280;4690;52.422;13.486;2023-05-17T07:15:15;101824.44;;;16.29;44.91
9695;BME280;4690;52.422;13.486;2023-05-17T07:17:41;101813.53;;;16.46;45.29
9695;BME280;4690;52.422;13.486;2023-05-17T07:20:07;101824.72;;;16.63;46.64
9695;BME280;4690;52.422;13.486;2023-05-17T07:22:33;101828.47;;;16.80;46.05
9695;BME280;4690;52.422;13.486;2023-05-17T07:24:58;101824.34;;;16.71;45.21
9695;BME280;4690;52.422;13.486;2023-05-17T07:27:24;101825.91;;;16.55;45.15
9695;BME280;4690;52.422;13.486;2023-05-17T07:29:50;101837.91;;;16.26;43.78
9695;BME280;4690;52.422;13.486;2023-05-17T07:32:16;101832.13;;;16.16;46.72
9695;BME280;4690;52.422;13.486;2023-05-17T07:34:42;101839.91;;;15.95;46.03
9695;BME280;4690;52.422;13.486;2023-05-17T07:37:08;101845.25;;;15.78;46.36
9695;BME280;4690;52.422;13.486;2023-05-17T07:39:34;101858.34;;;15.71;46.93
9695;BME280;4690;52.422;13.486;2023-05-17T07:42:00;101858.38;;;15.64;47.02
9695;BME280;4690;52.422;13.486;2023-05-17T07:44:25;101863.84;;;15.53;45.84
9695;BME280;4690;52.422;13.486;2023-05-17T07:46:51;101864.31;;;15.50;43.46
9695;BME280;4690;52.422;13.486;2023-05-17T07:49:17;101870.69;;;15.68;43.38
9695;BME280;4690;52.422;13.486;2023-05-17T07:51:43;101878.09;;;15.86;43.23
9695;BME280;4690;52.422;13.486;2023-05-17T07:54:08;101879.19;;;15.85;43.61
9695;BME280;4690;52.422;13.486;2023-05-17T07:56:34;101882.44;;;15.94;44.40
9695;BME280;4690;52.422;13.486;2023-05-17T07:59:00;101882.28;;;16.19;45.83
9695;BME280;4690;52.422;13.486;2023-05-17T08:01:26;101882.94;;;16.45;43.77
9695;BME280;4690;52.422;13.486;2023-05-17T08:03:52;101888.16;;;16.65;43.76
9695;BME280;4690;52.422;13.486;2023-05-17T08:06:18;101896.09;;;16.73;42.39
9695;BME280;4690;52.422;13.486;2023-05-17T08:08:44;101887.47;;;16.81;41.87
9695;BME280;4690;52.422;13.486;2023-05-17T08:11:11;101886.25;;;16.89;40.87
9695;BME280;4690;52.422;13.486;2023-05-17T08:13:38;101891.53;;;17.02;41.45
9695;BME280;4690;52.422;13.486;2023-05-17T08:16:04;101887.44;;;17.16;41.58
9695;BME280;4690;52.422;13.486;2023-05-17T08:18:33;101891.53;;;17.14;40.26
9695;BME280;4690;52.422;13.486;2023-05-17T08:20:59;101899.59;;;17.27;41.00
9695;BME280;4690;52.422;13.486;2023-05-17T08:23:24;101900.53;;;17.33;39.57
9695;BME280;4690;52.422;13.486;2023-05-17T08:25:50;101907.75;;;17.34;39.13
9695;BME280;4690;52.422;13.486;2023-05-17T08:28:17;101894.00;;;17.39;38.58
9695;BME280;4690;52.422;13.486;2023-05-17T08:30:43;101897.59;;;17.51;40.50
9695;BME280;4690;52.422;13.486;2023-05-17T08:33:09;101899.28;;;17.52;38.63
9695;BME280;4690;52.422;13.486;2023-05-17T08:35:35;101900.59;;;17.61;36.33
9695;BME280;4690;52.422;13.486;2023-05-17T08:38:01;101917.38;;;17.55;36.34
9695;BME280;4690;52.422;13.486;2023-05-17T08:40:27;101914.34;;;17.56;36.88
9695;BME280;4690;52.422;13.486;2023-05-17T08:42:53;101901.16;;;17.75;35.69
9695;BME280;4690;52.422;13.486;2023-05-17T08:45:19;101911.22;;;17.93;35.20
9695;BME280;4690;52.422;13.486;2023-05-17T08:47:46;101909.50;;;18.04;35.30
9695;BME280;4690;52.422;13.486;2023-05-17T08:50:13;101906.88;;;17.97;35.55
9695;BME280;4690;52.422;13.486;2023-05-17T08:52:43;101905.16;;;18.08;36.19
9695;BME280;4690;52.422;13.486;2023-05-17T08:55:09;101912.56;;;18.19;35.22
9695;BME280;4690;52.422;13.486;2023-05-17T08:57:37;101908.53;;;18.27;35.21
9695;BME280;4690;52.422;13.486;2023-05-17T09:00:07;101925.34;;;18.20;34.55
9695;BME280;4690;52.422;13.486;2023-05-17T09:02:38;101912.94;;;17.94;34.66
9695;BME280;4690;52.422;13.486;2023-05-17T09:05:12;101905.03;;;18.03;34.31
9695;BME280;4690;52.422;13.486;2023-05-17T09:07:38;101905.16;;;18.08;34.90
9695;BME280;4690;52.422;13.486;2023-05-17T09:10:04;101910.63;;;18.20;35.93
9695;BME280;4690;52.422;13.486;2023-05-17T09:12:34;101906.59;;;18.10;34.23
9695;BME280;4690;52.422;13.486;2023-05-17T09:15:17;101895.75;;;18.26;34.22
9695;BME280;4690;52.422;13.486;2023-05-17T09:17:55;101902.25;;;18.48;35.32
9695;BME280;4690;52.422;13.486;2023-05-17T09:20:23;101900.91;;;18.68;35.15
9695;BME280;4690;52.422;13.486;2023-05-17T09:22:50;101914.41;;;18.76;34.93
9695;BME280;4690;52.422;13.486;2023-05-17T09:25:22;101915.41;;;18.87;34.06
9695;BME280;4690;52.422;13.486;2023-05-17T09:27:52;101908.59;;;18.77;31.80
9695;BME280;4690;52.422;13.486;2023-05-17T09:30:18;101915.34;;;18.81;32.35
9695;BME280;4690;52.422;13.486;2023-05-17T09:32:44;101919.47;;;18.79;31.14
9695;BME280;4690;52.422;13.486;2023-05-17T09:35:13;101914.31;;;18.88;33.24
9695;BME280;4690;52.422;13.486;2023-05-17T09:37:41;101907.25;;;18.80;32.36
9695;BME280;4690;52.422;13.486;2023-05-17T09:40:09;101915.75;;;18.90;33.09
9695;BME280;4690;52.422;13.486;2023-05-17T09:42:47;101911.50;;;19.04;33.07
9695;BME280;4690;52.422;13.486;2023-05-17T09:45:21;101911.56;;;19.26;33.37
9695;BME280;4690;52.422;13.486;2023-05-17T09:47:48;101923.38;;;19.39;33.55
9695;BME280;4690;52.422;13.486;2023-05-17T09:50:19;101915.97;;;19.44;33.42
9695;BME280;4690;52.422;13.486;2023-05-17T09:52:46;101909.19;;;19.57;33.71
9695;BME280;4690;52.422;13.486;2023-05-17T09:55:12;101918.50;;;19.68;33.80
9695;BME280;4690;52.422;13.486;2023-05-17T09:57:40;101916.91;;;19.72;31.80
9695;BME280;4690;52.422;13.486;2023-05-17T10:00:08;101913.34;;;19.77;31.01
9695;BME280;4690;52.422;13.486;2023-05-17T10:02:38;101905.63;;;19.84;30.85
9695;BME280;4690;52.422;13.486;2023-05-17T10:05:10;101913.66;;;19.80;30.25
9695;BME280;4690;52.422;13.486;2023-05-17T10:07:37;101915.72;;;19.90;31.49
9695;BME280;4690;52.422;13.486;2023-05-17T10:10:04;101914.66;;;19.96;32.05
9695;BME280;4690;52.422;13.486;2023-05-17T10:12:32;101918.91;;;20.04;32.00
9695;BME280;4690;52.422;13.486;2023-05-17T10:15:01;101926.38;;;19.98;31.47
9695;BME280;4690;52.422;13.486;2023-05-17T10:17:28;101926.91;;;19.95;28.93
9695;BME280;4690;52.422;13.486;2023-05-17T10:19:55;101917.72;;;19.95;30.30
9695;BME280;4690;52.422;13.486;2023-05-17T10:22:22;101918.69;;;19.83;30.00
9695;BME280;4690;52.422;13.486;2023-05-17T10:24:49;101909.63;;;19.93;30.22
9695;BME280;4690;52.422;13.486;2023-05-17T10:27:16;101917.88;;;20.10;32.30
9695;BME280;4690;52.422;13.486;2023-05-17T10:29:43;101932.06;;;20.08;30.34
9695;BME280;4690;52.422;13.486;2023-05-17T10:32:12;101922.06;;;20.12;30.34
9695;BME280;4690;52.422;13.486;2023-05-17T10:34:39;101926.13;;;20.27;31.17
9695;BME280;4690;52.422;13.486;2023-05-17T10:37:06;101931.00;;;20.14;27.66
9695;BME280;4690;52.422;13.486;2023-05-17T10:39:33;101926.56;;;20.13;29.35
9695;BME280;4690;52.422;13.486;2023-05-17T10:42:06;101947.41;;;20.11;30.01
9695;BME280;4690;52.422;13.486;2023-05-17T10:44:33;101936.00;;;20.12;28.94
9695;BME280;4690;52.422;13.486;2023-05-17T10:47:01;101935.34;;;20.27;28.68
9695;BME280;4690;52.422;13.486;2023-05-17T10:49:32;101939.31;;;20.36;30.31
9695;BME280;4690;52.422;13.486;2023-05-17T10:52:12;101943.56;;;20.44;28.51
9695;BME280;4690;52.422;13.486;2023-05-17T10:54:43;101943.69;;;20.54;28.87
9695;BME280;4690;52.422;13.486;2023-05-17T10:57:36;101949.00;;;20.56;28.70
9695;BME280;4690;52.422;13.486;2023-05-17T11:00:05;101941.59;;;20.67;29.65
9695;BME280;4690;52.422;13.486;2023-05-17T11:02:33;101934.94;;;20.73;29.49
9695;BME280;4690;52.422;13.486;2023-05-17T11:05:04;101940.22;;;20.74;29.70
9695;BME280;4690;52.422;13.486;2023-05-17T11:07:31;101929.19;;;20.85;29.68
9695;BME280;4690;52.422;13.486;2023-05-17T11:12:38;101940.84;;;20.81;28.75
9695;BME280;4690;52.422;13.486;2023-05-17T11:15:14;101916.63;;;20.82;28.48
9695;BME280;4690;52.422;13.486;2023-05-17T11:20:13;101940.56;;;20.78;29.69
9695;BME280;4690;52.422;13.486;2023-05-17T11:22:59;101949.25;;;20.87;28.78
9695;BME280;4690;52.422;13.486;2023-05-17T11:25:38;101948.19;;;20.93;28.25
9695;BME280;4690;52.422;13.486;2023-05-17T11:28:19;101930.81;;;20.80;29.57
9695;BME280;4690;52.422;13.486;2023-05-17T11:30:45;101931.97;;;20.85;27.82
9695;BME280;4690;52.422;13.486;2023-05-17T11:33:18;101941.44;;;20.84;27.97
9695;BME280;4690;52.422;13.486;2023-05-17T11:35:46;101932.41;;;20.71;28.13
9695;BME280;4690;52.422;13.486;2023-05-17T11:38:22;101932.16;;;20.73;28.42
9695;BME280;4690;52.422;13.486;2023-05-17T11:40:56;101931.81;;;20.64;28.62
9695;BME280;4690;52.422;13.486;2023-05-17T11:43:25;101928.97;;;20.59;27.15
9695;BME280;4690;52.422;13.486;2023-05-17T11:45:57;101928.97;;;20.59;27.69
9695;BME280;4690;52.422;13.486;2023-05-17T11:48:25;101932.53;;;20.54;29.07
9695;BME280;4690;52.422;13.486;2023-05-17T11:50:54;101932.00;;;20.57;29.05
9695;BME280;4690;52.422;13.486;2023-05-17T11:53:21;101934.25;;;20.60;27.30
9695;BME280;4690;52.422;13.486;2023-05-17T11:55:51;101936.66;;;20.52;29.15
9695;BME280;4690;52.422;13.486;2023-05-17T11:58:24;101930.34;;;20.56;28.78
9695;BME280;4690;52.422;13.486;2023-05-17T12:00:56;101923.44;;;20.64;28.01
9695;BME280;4690;52.422;13.486;2023-05-17T12:03:26;101928.78;;;20.71;29.07
9695;BME280;4690;52.422;13.486;2023-05-17T12:06:08;101935.25;;;20.76;29.28
9695;BME280;4690;52.422;13.486;2023-05-17T12:08:38;101940.31;;;20.85;28.82
9695;BME280;4690;52.422;13.486;2023-05-17T12:11:06;101933.41;;;20.92;27.93
9695;BME280;4690;52.422;13.486;2023-05-17T12:13:34;101930.94;;;20.96;27.50
9695;BME280;4690;52.422;13.486;2023-05-17T12:16:05;101923.03;;;20.82;27.85
9695;BME280;4690;52.422;13.486;2023-05-17T12:18:39;101920.69;;;20.69;29.02
9695;BME280;4690;52.422;13.486;2023-05-17T12:21:09;101918.00;;;20.79;30.40
9695;BME280;4690;52.422;13.486;2023-05-17T12:23:41;101931.91;;;20.79;27.73
9695;BME280;4690;52.422;13.486;2023-05-17T12:26:16;101931.66;;;20.81;28.24
9695;BME280;4690;52.422;13.486;2023-05-17T12:29:03;101919.50;;;20.92;27.35
9695;BME280;4690;52.422;13.486;2023-05-17T12:31:32;101917.59;;;21.03;28.37
9695;BME280;4690;52.422;13.486;2023-05-17T12:34:00;101938.56;;;21.11;29.61
9695;BME280;4690;52.422;13.486;2023-05-17T12:36:28;101923.28;;;21.18;27.66
9695;BME280;4690;52.422;13.486;2023-05-17T12:38:55;101921.63;;;21.22;27.55
9695;BME280;4690;52.422;13.486;2023-05-17T12:41:23;101940.66;;;21.36;28.85
9695;BME280;4690;52.422;13.486;2023-05-17T12:43:51;101945.13;;;21.32;28.24
9695;BME280;4690;52.422;13.486;2023-05-17T12:46:21;101940.09;;;21.34;27.99
9695;BME280;4690;52.422;13.486;2023-05-17T12:48:50;101935.34;;;21.34;27.29
9695;BME280;4690;52.422;13.486;2023-05-17T12:51:18;101933.66;;;21.33;28.66
9695;BME280;4690;52.422;13.486;2023-05-17T12:53:56;101930.94;;;21.38;28.92
9695;BME280;4690;52.422;13.486;2023-05-17T12:56:27;101928.44;;;21.42;27.11
9695;BME280;4690;52.422;13.486;2023-05-17T13:01:44;101923.78;;;21.58;28.08
9695;BME280;4690;52.422;13.486;2023-05-17T13:04:11;101924.59;;;21.53;27.37
9695;BME280;4690;52.422;13.486;2023-05-17T13:06:50;101927.69;;;21.52;28.38
9695;BME280;4690;52.422;13.486;2023-05-17T13:09:18;101922.63;;;21.43;27.63
9695;BME280;4690;52.422;13.486;2023-05-17T13:11:53;101918.19;;;21.53;28.26
9695;BME280;4690;52.422;13.486;2023-05-17T13:14:41;101919.59;;;21.55;28.46
9695;BME280;4690;52.422;13.486;2023-05-17T13:17:35;101921.03;;;21.63;27.94
9695;BME280;4690;52.422;13.486;2023-05-17T13:20:01;101934.69;;;21.64;27.46
9695;BME280;4690;52.422;13.486;2023-05-17T13:22:28;101927.44;;;21.63;27.31
9695;BME280;4690;52.422;13.486;2023-05-17T13:24:54;101921.50;;;21.44;26.92